CYWG/YWG METAR and TAF weather

Enter ICAO airport designator
Station Type Date Time Source
CYWG METAR 2021/09/25 02:00 UTC NOAA

CYWG 250200Z 30006KT 15SM BKN053 09/04 A2988 RMK SC5 SLP126


Station Type Date Time Source
CYWG Decoded METAR 2021/09/25 02:00 UTC NOAA

Winnipeg Int. Airportman., Canada (CYWG) 49-54N 097-14W 239M
Sep 24, 2021 - 10:00 PM EDT / 2021.09.25 0200 UTC
Wind: from the WNW (300 degrees) at 7 MPH (6 KT):0
Visibility: 15 mile(s):0
Sky conditions: mostly cloudy
Temperature: 48 F (9 C)
Dew Point: 39 F (4 C)
Relative Humidity: 70%
Pressure (altimeter): 29.88 in. Hg (1011 hPa)
ob: CYWG 250200Z 30006KT 15SM BKN053 09/04 A2988 RMK SC5 SLP126
cycle: 2

Station Type Date Time Source
CYWG TAF 2021/09/24 18:33 UTC NOAA

TAF TAF CYWG 241730Z 2418/2518 30015KT P6SM FEW060 SCT090 BKN110
TEMPO 2418/2501 BKN060 OVC090
FM250100 30008KT P6SM FEW050
FM250700 26008KT P6SM FEW080 BKN180
FM251200 25010KT P6SM BKN080
RMK NXT FCST BY 250000Z

Example: see airport list